Time;durP1;ratioP1;P1;durP2;ratioP2;P2;SDS_P1;SDS_P2;PMS_P1;PMS_P2;Temp;Humidity;BMP_temperature;BMP_pressure;BME280_temperature;BME280_humidity;BME280_pressure;Samples;Min_cycle;Max_cycle;Signal;HPM_P1;HPM_P2
2021/05/26 00:01:31;;;;;;;3.42;1.15;;;12.70;70.80;;;;;;5057459;28;20431;-81
2021/05/26 00:03:57;;;;;;;1.10;1.00;;;12.70;70.60;;;;;;5059411;28;20183;-82
2021/05/26 00:06:23;;;;;;;6.40;1.73;;;12.80;70.60;;;;;;5057856;28;20204;-83
2021/05/26 00:08:49;;;;;;;5.13;1.00;;;12.80;69.90;;;;;;5057593;28;20419;-82
2021/05/26 00:11:15;;;;;;;1.80;1.00;;;12.80;70.10;;;;;;5057227;28;20190;-83
2021/05/26 00:13:45;;;;;;;2.55;1.35;;;12.90;70.10;;;;;;5060434;28;20236;-83
2021/05/26 00:16:12;;;;;;;2.72;1.40;;;12.90;71.20;;;;;;5061555;28;20174;-83
2021/05/26 00:18:38;;;;;;;1.50;0.90;;;12.90;70.30;;;;;;5061417;28;20169;-82
2021/05/26 00:21:06;;;;;;;3.90;1.15;;;13.00;70.30;;;;;;5060964;28;20193;-83
2021/05/26 00:23:32;;;;;;;3.83;1.10;;;13.00;71.30;;;;;;5061556;28;20192;-82
2021/05/26 00:25:58;;;;;;;3.17;1.20;;;13.00;70.60;;;;;;5059845;28;20539;-82
2021/05/26 00:28:24;;;;;;;4.72;1.50;;;13.00;70.20;;;;;;5059441;28;20418;-82
2021/05/26 00:30:52;;;;;;;3.72;1.63;;;13.10;70.30;;;;;;5060021;28;20235;-81
2021/05/26 00:33:22;;;;;;;1.38;0.90;;;13.20;70.60;;;;;;5059974;28;20187;-81
2021/05/26 00:35:48;;;;;;;2.42;1.05;;;13.20;71.30;;;;;;5060218;28;20228;-81
2021/05/26 00:38:15;;;;;;;2.53;1.00;;;13.20;70.30;;;;;;5059467;28;20173;-82
2021/05/26 00:40:41;;;;;;;8.32;1.20;;;13.20;70.60;;;;;;5058981;28;20204;-82
2021/05/26 00:43:07;;;;;;;5.55;1.70;;;13.20;70.80;;;;;;5058528;28;20201;-82
2021/05/26 00:45:33;;;;;;;6.25;2.53;;;13.30;71.30;;;;;;5058978;28;20310;-82
2021/05/26 00:47:59;;;;;;;1.50;0.95;;;13.30;71.30;;;;;;5058723;28;20208;-82
2021/05/26 00:50:29;;;;;;;1.42;0.90;;;13.30;70.60;;;;;;5058948;28;20177;-82
2021/05/26 00:52:59;;;;;;;1.98;0.90;;;13.20;71.20;;;;;;5059475;28;20178;-82
2021/05/26 00:55:25;;;;;;;4.15;1.10;;;13.20;71.30;;;;;;5059475;28;20169;-82
2021/05/26 00:57:51;;;;;;;2.85;1.30;;;13.30;70.80;;;;;;5059027;28;20176;-82
2021/05/26 01:00:20;;;;;;;8.90;1.40;;;13.30;71.00;;;;;;5060807;28;20181;-83
2021/05/26 01:02:47;;;;;;;1.80;1.20;;;13.30;70.90;;;;;;5059642;28;20411;-82
2021/05/26 01:05:14;;;;;;;1.92;1.30;;;13.30;70.30;;;;;;5059972;28;20183;-81
2021/05/26 01:07:41;;;;;;;2.78;1.23;;;13.30;70.30;;;;;;5059607;28;20200;-82
2021/05/26 01:10:11;;;;;;;8.13;1.25;;;13.40;71.70;;;;;;5059281;28;20255;-82
2021/05/26 01:12:37;;;;;;;3.42;1.02;;;13.40;71.90;;;;;;5059171;28;20169;-81
2021/05/26 01:15:05;;;;;;;1.02;0.93;;;13.40;72.00;;;;;;5059862;28;20177;-81
2021/05/26 01:17:30;;;;;;;7.93;1.55;;;13.40;70.30;;;;;;5059475;28;20173;-81
2021/05/26 01:19:56;;;;;;;3.23;1.20;;;13.40;71.20;;;;;;5058897;28;20173;-80
2021/05/26 01:22:22;;;;;;;3.50;0.97;;;13.50;73.10;;;;;;5058709;28;20436;-81
2021/05/26 01:24:48;;;;;;;1.53;1.10;;;13.40;73.80;;;;;;5058293;28;20173;-81
2021/05/26 01:27:14;;;;;;;8.70;1.30;;;13.40;75.10;;;;;;5058845;28;20213;-81
2021/05/26 01:29:41;;;;;;;7.72;1.10;;;13.30;75.60;;;;;;5058714;28;20173;-81
2021/05/26 01:32:06;;;;;;;2.65;1.10;;;13.30;76.00;;;;;;5057806;28;20278;-81
2021/05/26 01:34:32;;;;;;;1.37;1.10;;;13.10;76.20;;;;;;5057286;28;20177;-81
2021/05/26 01:36:58;;;;;;;1.83;1.10;;;13.00;76.00;;;;;;5057246;28;20416;-81
2021/05/26 01:39:24;;;;;;;1.88;1.00;;;13.00;77.40;;;;;;5056846;28;20178;-83
2021/05/26 01:41:50;;;;;;;2.43;1.60;;;12.90;79.80;;;;;;5056637;28;20196;-81
2021/05/26 01:44:16;;;;;;;1.73;0.70;;;12.80;78.30;;;;;;5056636;28;20445;-81
2021/05/26 01:46:42;;;;;;;1.17;0.80;;;12.80;79.80;;;;;;5056875;28;20982;-82
2021/05/26 01:49:09;;;;;;;3.90;1.30;;;12.80;79.90;;;;;;5056161;28;20165;-81
2021/05/26 01:51:36;;;;;;;4.38;1.30;;;12.70;81.70;;;;;;5056882;28;20193;-82
2021/05/26 01:54:03;;;;;;;3.45;1.40;;;12.70;79.80;;;;;;5056782;28;20201;-81
2021/05/26 01:56:31;;;;;;;2.28;1.20;;;12.70;80.90;;;;;;5056699;28;20207;-81
2021/05/26 01:58:58;;;;;;;4.75;1.60;;;12.70;81.00;;;;;;5056283;28;20181;-81
2021/05/26 02:01:25;;;;;;;2.75;1.48;;;12.60;81.00;;;;;;5056196;28;20566;-81
2021/05/26 02:03:51;;;;;;;2.13;1.08;;;12.60;81.40;;;;;;5056347;28;20181;-81
2021/05/26 02:06:19;;;;;;;7.78;1.30;;;12.60;81.30;;;;;;5056449;28;20707;-82
2021/05/26 02:08:48;;;;;;;3.88;1.17;;;12.50;80.90;;;;;;5056849;28;20166;-82
2021/05/26 02:14:03;;;;;;;1.15;0.70;;;12.60;80.30;;;;;;5057632;28;20526;-82
2021/05/26 02:16:29;;;;;;;6.53;1.20;;;12.60;80.60;;;;;;5056718;28;20626;-81
2021/05/26 02:18:55;;;;;;;3.63;1.10;;;12.50;80.90;;;;;;5056812;28;20173;-82
2021/05/26 02:21:21;;;;;;;2.43;1.17;;;12.50;80.10;;;;;;5056495;28;20436;-83
2021/05/26 02:23:47;;;;;;;1.70;0.80;;;12.40;81.20;;;;;;5056825;28;20211;-82
2021/05/26 02:26:14;;;;;;;2.67;2.20;;;12.40;81.00;;;;;;5056619;28;20173;-82
2021/05/26 02:28:41;;;;;;;4.95;1.10;;;12.40;80.90;;;;;;5056568;28;20169;-83
2021/05/26 02:31:08;;;;;;;4.82;1.10;;;12.30;81.30;;;;;;5056641;28;20201;-81
2021/05/26 02:33:34;;;;;;;3.65;1.10;;;12.30;81.60;;;;;;5056077;28;20188;-81
2021/05/26 02:36:00;;;;;;;3.33;1.50;;;12.20;81.40;;;;;;5055155;28;20173;-81
2021/05/26 02:38:26;;;;;;;2.88;1.10;;;12.20;81.90;;;;;;5055598;28;20209;-82
2021/05/26 02:40:51;;;;;;;3.20;1.83;;;12.20;81.90;;;;;;5055473;28;20193;-82
2021/05/26 02:43:17;;;;;;;3.20;1.10;;;12.30;81.20;;;;;;5056026;28;20179;-81
2021/05/26 02:45:43;;;;;;;6.00;1.47;;;12.20;81.70;;;;;;5056035;28;20404;-82
2021/05/26 02:48:09;;;;;;;6.40;1.30;;;12.20;81.60;;;;;;5055967;28;20247;-82
2021/05/26 02:50:35;;;;;;;1.77;1.10;;;12.20;82.00;;;;;;5056034;28;20476;-81
2021/05/26 02:53:01;;;;;;;8.10;1.53;;;12.20;82.00;;;;;;5056053;28;20177;-81
2021/05/26 02:55:27;;;;;;;3.17;1.40;;;12.10;82.60;;;;;;5055554;28;20419;-81
2021/05/26 02:57:53;;;;;;;4.32;0.95;;;12.10;83.10;;;;;;5055193;28;20176;-81
2021/05/26 03:00:22;;;;;;;4.30;1.50;;;12.10;83.10;;;;;;5056700;28;20177;-82
2021/05/26 03:02:49;;;;;;;3.00;0.90;;;12.10;83.70;;;;;;5057367;28;20185;-82
2021/05/26 03:05:17;;;;;;;11.27;1.67;;;12.10;84.20;;;;;;5058345;28;20813;-81
2021/05/26 03:07:43;;;;;;;7.00;1.40;;;12.10;84.90;;;;;;5058258;28;20295;-82
2021/05/26 03:10:11;;;;;;;2.33;1.20;;;12.00;85.30;;;;;;5056075;28;20633;-81
2021/05/26 03:12:37;;;;;;;3.53;1.38;;;12.00;86.00;;;;;;5056792;28;20173;-83
2021/05/26 03:15:08;;;;;;;4.65;1.55;;;11.90;86.00;;;;;;5057280;28;20169;-80
2021/05/26 03:17:35;;;;;;;1.23;1.15;;;12.00;86.00;;;;;;5056961;28;20177;-82
2021/05/26 03:20:04;;;;;;;2.45;1.25;;;11.90;86.70;;;;;;5055294;28;20260;-81
2021/05/26 03:22:30;;;;;;;6.72;1.63;;;11.90;86.70;;;;;;5054859;28;20247;-82
2021/05/26 03:24:55;;;;;;;3.28;1.10;;;11.90;87.00;;;;;;5054980;28;20181;-82
2021/05/26 03:27:23;;;;;;;2.70;1.10;;;11.90;87.40;;;;;;5054783;28;20669;-82
2021/05/26 03:29:49;;;;;;;4.20;1.30;;;11.90;87.80;;;;;;5055341;28;20473;-82
2021/05/26 03:32:15;;;;;;;4.00;1.37;;;11.90;87.40;;;;;;5054178;28;20193;-82
2021/05/26 03:34:41;;;;;;;4.32;1.73;;;11.90;88.10;;;;;;5054607;28;20651;-82
2021/05/26 03:37:07;;;;;;;4.10;1.23;;;11.90;87.40;;;;;;5055735;28;20236;-82
2021/05/26 03:39:33;;;;;;;5.40;1.30;;;11.90;87.80;;;;;;5054616;28;20942;-83
2021/05/26 03:41:58;;;;;;;4.35;1.30;;;11.90;88.10;;;;;;5054440;28;20423;-82
2021/05/26 03:44:24;;;;;;;3.17;1.30;;;11.90;87.80;;;;;;5054403;28;20176;-82
2021/05/26 03:46:50;;;;;;;2.40;1.60;;;11.90;88.00;;;;;;5055079;28;20451;-83
2021/05/26 03:49:16;;;;;;;7.00;1.97;;;11.90;87.00;;;;;;5054329;28;20219;-83
2021/05/26 03:51:43;;;;;;;7.40;1.30;;;11.90;86.90;;;;;;5054525;28;20185;-83
2021/05/26 03:54:09;;;;;;;1.88;0.95;;;12.00;86.30;;;;;;5055213;28;20165;-83
2021/05/26 03:56:35;;;;;;;1.77;1.23;;;12.00;86.00;;;;;;5055451;28;20267;-82
2021/05/26 03:59:00;;;;;;;3.97;1.30;;;11.90;86.30;;;;;;5055022;28;20465;-82
2021/05/26 04:01:26;;;;;;;7.30;1.30;;;11.90;86.20;;;;;;5054148;28;20471;-82
2021/05/26 04:03:55;;;;;;;2.60;2.50;;;11.90;86.20;;;;;;5054487;28;20227;-81
2021/05/26 04:06:20;;;;;;;2.50;1.30;;;12.00;86.20;;;;;;5054328;28;20565;-81
2021/05/26 04:08:46;;;;;;;2.83;1.57;;;12.00;86.20;;;;;;5055381;28;20244;-82
2021/05/26 04:11:12;;;;;;;2.00;1.27;;;11.90;86.30;;;;;;5054709;28;20189;-82
2021/05/26 04:13:38;;;;;;;4.60;1.40;;;11.90;86.60;;;;;;5054261;28;20462;-83
2021/05/26 04:16:04;;;;;;;3.10;1.03;;;12.00;86.90;;;;;;5054592;28;20173;-82
2021/05/26 04:18:30;;;;;;;3.40;1.50;;;12.00;87.30;;;;;;5054005;28;20455;-81
2021/05/26 04:20:55;;;;;;;5.60;1.10;;;12.00;87.70;;;;;;5054345;28;20185;-82
2021/05/26 04:23:21;;;;;;;5.23;1.57;;;11.90;88.10;;;;;;5054194;28;20173;-82
2021/05/26 04:25:51;;;;;;;2.60;1.73;;;11.90;88.10;;;;;;5053704;28;20782;-82
2021/05/26 04:28:21;;;;;;;5.60;1.42;;;11.90;88.70;;;;;;5053799;28;20541;-82
2021/05/26 04:30:48;;;;;;;6.75;1.20;;;11.90;89.10;;;;;;5053630;28;20193;-82
2021/05/26 04:33:14;;;;;;;3.08;1.30;;;11.90;89.60;;;;;;5053888;28;20203;-82
2021/05/26 04:35:39;;;;;;;11.15;1.95;;;11.90;89.50;;;;;;5053955;28;20534;-81
2021/05/26 04:38:05;;;;;;;1.93;1.30;;;11.90;89.10;;;;;;5054412;28;20226;-81
2021/05/26 04:40:31;;;;;;;7.00;1.50;;;11.90;89.50;;;;;;5054589;28;20330;-82
2021/05/26 04:42:57;;;;;;;3.53;1.50;;;11.90;89.80;;;;;;5054371;28;20188;-81
2021/05/26 04:45:23;;;;;;;3.73;1.30;;;11.90;90.50;;;;;;5056430;28;20173;-82
2021/05/26 04:47:49;;;;;;;3.03;1.63;;;11.90;90.70;;;;;;5055873;28;20201;-83
2021/05/26 04:50:15;;;;;;;8.23;1.90;;;11.90;91.70;;;;;;5056151;28;20442;-83
2021/05/26 04:52:40;;;;;;;2.40;1.45;;;11.90;91.60;;;;;;5055434;28;20196;-87
2021/05/26 04:55:06;;;;;;;3.20;1.87;;;11.90;91.60;;;;;;5052696;28;20177;-86
2021/05/26 04:57:32;;;;;;;4.40;1.60;;;11.90;91.90;;;;;;5052690;28;20169;-85
2021/05/26 04:59:58;;;;;;;6.63;1.90;;;11.80;92.30;;;;;;5053839;28;20291;-85
2021/05/26 05:02:24;;;;;;;9.80;1.90;;;11.90;92.50;;;;;;5056451;28;20234;-87
2021/05/26 05:04:49;;;;;;;6.67;1.87;;;11.80;92.60;;;;;;5057446;28;20177;-85
2021/05/26 05:07:15;;;;;;;2.83;1.50;;;11.80;92.80;;;;;;5056028;28;20540;-85
2021/05/26 05:09:41;;;;;;;5.77;1.60;;;11.80;92.70;;;;;;5056547;28;20165;-85
2021/05/26 05:12:07;;;;;;;3.63;1.70;;;11.80;92.90;;;;;;5057516;28;20193;-84
2021/05/26 05:14:33;;;;;;;3.83;1.95;;;11.80;93.30;;;;;;5058120;28;20660;-84
2021/05/26 05:16:58;;;;;;;5.00;2.17;;;11.80;93.30;;;;;;5058047;28;20173;-84
2021/05/26 05:19:25;;;;;;;3.33;2.10;;;11.80;93.70;;;;;;5057753;28;20260;-85
2021/05/26 05:21:51;;;;;;;5.47;2.00;;;11.90;93.70;;;;;;5057617;28;20197;-84
2021/05/26 05:24:17;;;;;;;1.87;1.30;;;11.90;93.20;;;;;;5057220;28;20173;-84
2021/05/26 05:26:43;;;;;;;3.88;1.60;;;11.90;93.30;;;;;;5058297;28;20197;-84
2021/05/26 05:29:09;;;;;;;6.20;1.70;;;11.80;94.00;;;;;;5058327;28;20180;-84
2021/05/26 05:31:35;;;;;;;2.78;1.60;;;11.90;93.70;;;;;;5058223;28;20428;-84
2021/05/26 05:34:01;;;;;;;4.70;1.40;;;11.80;93.90;;;;;;5057649;28;20676;-84
2021/05/26 05:36:26;;;;;;;8.47;1.47;;;11.80;94.00;;;;;;5057981;28;20183;-84
2021/05/26 05:38:52;;;;;;;3.70;1.57;;;11.80;94.40;;;;;;5058715;28;20180;-82
2021/05/26 05:41:18;;;;;;;2.50;1.53;;;11.80;94.80;;;;;;5058538;28;20435;-85
2021/05/26 05:43:44;;;;;;;7.03;1.90;;;11.80;94.80;;;;;;5056354;28;20180;-85
2021/05/26 05:46:10;;;;;;;5.50;1.80;;;11.80;95.40;;;;;;5056113;28;20181;-84
2021/05/26 05:48:35;;;;;;;6.10;1.57;;;11.80;95.60;;;;;;5056735;28;20193;-86
2021/05/26 05:51:01;;;;;;;4.20;1.53;;;11.90;95.20;;;;;;5056443;28;20436;-84
2021/05/26 05:53:27;;;;;;;5.07;1.50;;;11.90;94.60;;;;;;5055507;28;20181;-86
2021/05/26 05:55:53;;;;;;;7.10;1.83;;;11.90;94.60;;;;;;5059922;28;20549;-82
2021/05/26 05:58:23;;;;;;;9.07;1.37;;;11.90;94.70;;;;;;5058411;28;20169;-81
2021/05/26 06:00:49;;;;;;;4.45;1.60;;;11.90;94.90;;;;;;5058023;28;20439;-81
2021/05/26 06:03:15;;;;;;;2.80;1.30;;;11.90;94.70;;;;;;5057834;28;20173;-82
2021/05/26 06:05:40;;;;;;;4.30;1.50;;;11.90;94.70;;;;;;5057071;28;20169;-81
2021/05/26 06:08:06;;;;;;;7.23;2.03;;;11.90;95.30;;;;;;5060333;28;20203;-83
2021/05/26 06:10:32;;;;;;;4.83;1.60;;;11.90;95.70;;;;;;5059484;28;20596;-84
2021/05/26 06:12:59;;;;;;;2.30;1.60;;;11.90;96.40;;;;;;5059281;28;20261;-84
2021/05/26 06:15:25;;;;;;;4.72;1.63;;;12.00;96.60;;;;;;5058890;28;20239;-83
2021/05/26 06:17:51;;;;;;;3.53;1.60;;;12.00;96.90;;;;;;5059215;28;20173;-83
2021/05/26 06:20:17;;;;;;;4.50;2.07;;;12.10;96.80;;;;;;5059195;28;20268;-83
2021/05/26 06:22:45;;;;;;;3.25;1.88;;;12.10;96.60;;;;;;5059557;28;20254;-83
2021/05/26 06:25:11;;;;;;;5.93;1.95;;;12.20;96.50;;;;;;5058886;28;20179;-83
2021/05/26 06:27:38;;;;;;;2.10;1.30;;;12.20;96.50;;;;;;5057602;28;20212;-83
2021/05/26 06:30:04;;;;;;;3.75;1.88;;;12.30;96.80;;;;;;5057546;28;20514;-83
2021/05/26 06:32:30;;;;;;;5.05;1.63;;;12.30;97.10;;;;;;5057784;28;20714;-83
2021/05/26 06:34:56;;;;;;;5.37;2.13;;;12.40;96.80;;;;;;5058350;28;20168;-83
2021/05/26 06:37:21;;;;;;;4.23;2.53;;;12.40;96.60;;;;;;5058133;28;20711;-83
2021/05/26 06:39:47;;;;;;;6.77;2.10;;;12.40;96.00;;;;;;5057785;28;20343;-84
2021/05/26 06:42:13;;;;;;;2.85;1.95;;;12.40;96.30;;;;;;5057646;28;20243;-83
2021/05/26 06:44:39;;;;;;;6.60;2.00;;;12.40;96.60;;;;;;5058227;28;20173;-83
2021/05/26 06:47:05;;;;;;;7.47;1.93;;;12.50;96.90;;;;;;5058156;28;20461;-83
2021/05/26 06:49:31;;;;;;;5.43;2.00;;;12.50;96.20;;;;;;5057435;28;20260;-83
2021/05/26 06:51:57;;;;;;;4.30;2.10;;;12.50;96.10;;;;;;5057953;28;20982;-83
2021/05/26 06:54:23;;;;;;;5.95;1.75;;;12.50;96.30;;;;;;5057700;28;20525;-82
2021/05/26 06:56:49;;;;;;;6.93;1.92;;;12.60;96.70;;;;;;5058155;28;20169;-83
2021/05/26 06:59:15;;;;;;;4.40;1.70;;;12.70;96.30;;;;;;5057411;28;20610;-82
2021/05/26 07:01:41;;;;;;;8.70;1.87;;;12.80;95.10;;;;;;5057259;28;20193;-82
2021/05/26 07:04:07;;;;;;;3.92;1.70;;;12.90;95.10;;;;;;5057284;28;20447;-82
2021/05/26 07:06:32;;;;;;;3.37;1.70;;;12.90;94.20;;;;;;5057071;28;20193;-83
2021/05/26 07:08:58;;;;;;;3.03;1.83;;;13.00;94.10;;;;;;5057021;28;20412;-82
2021/05/26 07:11:24;;;;;;;3.77;1.90;;;13.00;93.80;;;;;;5056682;28;20951;-83
2021/05/26 07:13:50;;;;;;;5.50;2.00;;;13.00;94.30;;;;;;5056690;28;20208;-83
2021/05/26 07:16:15;;;;;;;3.77;1.60;;;13.00;93.80;;;;;;5056481;28;20652;-83
2021/05/26 07:18:46;;;;;;;6.17;2.00;;;13.00;92.50;;;;;;5055983;28;20173;-83
2021/05/26 07:21:12;;;;;;;3.22;1.50;;;13.10;94.30;;;;;;5056420;28;20697;-84
2021/05/26 07:23:38;;;;;;;3.42;1.35;;;13.10;93.40;;;;;;5055806;28;20531;-83
2021/05/26 07:26:04;;;;;;;8.37;2.13;;;13.10;93.60;;;;;;5057120;28;20172;-83
2021/05/26 07:28:30;;;;;;;2.80;1.80;;;13.10;93.10;;;;;;5056443;28;20487;-83
2021/05/26 07:30:56;;;;;;;6.00;2.20;;;13.00;93.30;;;;;;5056360;28;20443;-85
2021/05/26 07:33:22;;;;;;;6.90;2.00;;;13.00;93.00;;;;;;5069276;22;20299;-81
2021/05/26 07:35:47;;;;;;;10.13;2.20;;;13.00;93.70;;;;;;4956621;28;20417;-82
2021/05/26 07:38:13;;;;;;;7.97;2.57;;;13.00;93.50;;;;;;4957480;28;20914;-81
2021/05/26 07:40:39;;;;;;;5.25;2.00;;;13.00;94.00;;;;;;4956423;28;20200;-81
2021/05/26 07:43:05;;;;;;;11.17;2.10;;;13.00;95.00;;;;;;4956388;28;20203;-81
2021/05/26 07:45:31;;;;;;;8.70;1.83;;;13.10;94.30;;;;;;4957333;28;20930;-82
2021/05/26 07:47:56;;;;;;;7.70;2.30;;;13.20;93.90;;;;;;4956673;28;20192;-82
2021/05/26 07:50:22;;;;;;;5.10;1.80;;;13.20;93.40;;;;;;4956816;28;20179;-82
2021/05/26 07:52:48;;;;;;;4.03;2.10;;;13.20;90.40;;;;;;4956323;28;20426;-83
2021/05/26 07:55:14;;;;;;;9.00;2.13;;;13.10;88.50;;;;;;4956190;28;20172;-82
2021/05/26 07:57:40;;;;;;;5.53;1.93;;;13.00;87.70;;;;;;4955402;28;20423;-82
2021/05/26 08:00:10;;;;;;;7.57;1.80;;;12.90;88.40;;;;;;4955025;28;20506;-83
2021/05/26 08:02:38;;;;;;;4.45;1.65;;;12.90;89.60;;;;;;4955573;28;20857;-82
2021/05/26 08:05:04;;;;;;;9.80;2.53;;;12.90;87.00;;;;;;4955109;28;20178;-81
2021/05/26 08:07:30;;;;;;;5.30;2.20;;;12.80;85.60;;;;;;4955300;28;20699;-82
2021/05/26 08:09:56;;;;;;;8.95;2.60;;;12.80;88.00;;;;;;4955750;28;20203;-82
2021/05/26 08:12:21;;;;;;;4.37;1.67;;;12.80;88.80;;;;;;4955515;28;20698;-82
2021/05/26 08:14:47;;;;;;;10.20;2.77;;;12.90;87.00;;;;;;4955138;28;20707;-82
2021/05/26 08:17:13;;;;;;;3.10;1.50;;;12.90;87.60;;;;;;4955065;28;20522;-82
2021/05/26 08:19:38;;;;;;;4.40;1.60;;;13.00;88.90;;;;;;4955321;28;20179;-83
2021/05/26 08:22:04;;;;;;;9.30;2.10;;;13.00;88.00;;;;;;4956088;28;20434;-82
2021/05/26 08:24:30;;;;;;;3.80;1.30;;;13.00;84.40;;;;;;4955882;28;20180;-82
2021/05/26 08:26:56;;;;;;;11.23;2.13;;;13.00;85.20;;;;;;4956477;28;20199;-83
2021/05/26 08:29:22;;;;;;;14.10;2.00;;;13.00;86.20;;;;;;4956888;28;20919;-82
2021/05/26 08:31:49;;;;;;;5.40;1.52;;;13.00;86.70;;;;;;4956612;28;20435;-81
2021/05/26 08:34:15;;;;;;;4.30;1.75;;;13.00;86.20;;;;;;4957189;28;20279;-82
2021/05/26 08:36:41;;;;;;;5.28;1.73;;;13.00;87.00;;;;;;4959966;28;20201;-82
2021/05/26 08:39:07;;;;;;;5.80;2.27;;;13.00;85.20;;;;;;4958954;28;20176;-82
2021/05/26 08:41:32;;;;;;;5.78;1.65;;;13.00;86.20;;;;;;4959073;28;20962;-82
2021/05/26 08:43:58;;;;;;;6.30;1.60;;;13.00;84.40;;;;;;4959032;28;20183;-82
2021/05/26 08:46:28;;;;;;;17.13;4.87;;;13.00;84.90;;;;;;4958312;28;20411;-78
2021/05/26 08:49:01;;;;;;;8.57;2.60;;;13.00;85.50;;;;;;4960020;28;20422;-81
2021/05/26 08:51:27;;;;;;;4.70;1.40;;;13.10;88.50;;;;;;4960438;28;20743;-82
2021/05/26 08:53:53;;;;;;;3.17;1.92;;;13.20;85.80;;;;;;4959771;28;20222;-82
2021/05/26 08:56:19;;;;;;;10.50;2.63;;;13.10;85.80;;;;;;4960032;28;20171;-82
2021/05/26 08:58:44;;;;;;;4.80;1.70;;;13.20;86.30;;;;;;4960415;28;20179;-82
2021/05/26 09:01:10;;;;;;;3.30;1.60;;;13.20;86.60;;;;;;4959826;28;20462;-82
2021/05/26 09:03:36;;;;;;;6.60;1.70;;;13.30;88.50;;;;;;4961238;28;20411;-82
2021/05/26 09:06:09;;;;;;;5.10;1.90;;;13.40;85.30;;;;;;4961194;28;20411;-82
2021/05/26 09:08:51;;;;;;;5.78;1.70;;;13.40;86.40;;;;;;4959934;28;20214;-82
2021/05/26 09:11:29;;;;;;;8.70;1.92;;;13.40;86.40;;;;;;4959844;28;20664;-83
2021/05/26 09:13:55;;;;;;;8.77;2.40;;;13.30;85.80;;;;;;4960313;28;20646;-83
2021/05/26 09:16:31;;;;;;;5.90;1.63;;;13.30;86.30;;;;;;4960964;28;20186;-82
2021/05/26 09:18:59;;;;;;;3.45;1.45;;;13.30;86.20;;;;;;4961262;28;20160;-82
2021/05/26 09:21:45;;;;;;;3.90;1.35;;;13.40;87.30;;;;;;4961651;28;20208;-82
2021/05/26 09:24:20;;;;;;;2.22;1.50;;;13.30;86.00;;;;;;4961454;28;20495;-82
2021/05/26 09:26:57;;;;;;;3.88;2.10;;;13.30;84.60;;;;;;4961086;28;20198;-82
2021/05/26 09:29:33;;;;;;;6.25;2.33;;;13.40;85.80;;;;;;4960623;28;20164;-82
2021/05/26 09:32:19;;;;;;;9.20;2.22;;;13.40;85.80;;;;;;4959801;28;20246;-83
2021/05/26 09:34:49;;;;;;;12.02;2.42;;;13.40;84.40;;;;;;4960387;28;20183;-83
2021/05/26 09:37:29;;;;;;;3.97;1.70;;;13.40;87.40;;;;;;4959710;28;20172;-83
2021/05/26 09:39:57;;;;;;;11.52;2.05;;;13.40;83.50;;;;;;4960046;28;20167;-82
2021/05/26 09:42:32;;;;;;;8.73;2.10;;;13.30;84.90;;;;;;4959843;28;20195;-83
2021/05/26 09:45:09;;;;;;;4.15;1.30;;;13.30;85.80;;;;;;4961117;28;20199;-82
2021/05/26 09:47:37;;;;;;;2.17;1.35;;;13.20;83.30;;;;;;4961347;28;20217;-82
2021/05/26 09:50:24;;;;;;;2.45;1.40;;;13.20;85.20;;;;;;4960621;28;20176;-83
2021/05/26 09:53:20;;;;;;;8.20;3.50;;;13.00;84.10;;;;;;4961348;28;20640;-82
2021/05/26 09:55:46;;;;;;;8.65;1.80;;;13.10;85.20;;;;;;4961163;28;20179;-83
2021/05/26 09:58:18;;;;;;;4.80;1.48;;;13.10;84.90;;;;;;4959963;28;20647;-83
2021/05/26 10:00:46;;;;;;;4.60;1.38;;;13.20;83.90;;;;;;4959427;28;20196;-83
2021/05/26 10:03:13;;;;;;;13.93;1.30;;;13.10;82.70;;;;;;4959510;28;20175;-83
2021/05/26 10:05:39;;;;;;;9.38;1.30;;;13.20;85.10;;;;;;4958781;28;20183;-83
2021/05/26 10:08:15;;;;;;;2.10;1.50;;;13.30;83.00;;;;;;4958605;28;20200;-83
2021/05/26 10:10:47;;;;;;;1.88;1.10;;;13.30;83.80;;;;;;4958705;28;20713;-82
2021/05/26 10:13:13;;;;;;;4.90;1.75;;;13.40;84.20;;;;;;4958432;28;20180;-83
2021/05/26 10:15:41;;;;;;;2.85;1.25;;;13.60;82.60;;;;;;4958672;28;20188;-83
2021/05/26 10:18:08;;;;;;;1.77;1.10;;;13.70;81.30;;;;;;4976215;28;20176;-84
2021/05/26 10:20:37;;;;;;;2.05;0.90;;;13.60;79.60;;;;;;4957835;28;20265;-83
2021/05/26 10:23:05;;;;;;;1.52;1.10;;;13.70;82.80;;;;;;4958548;28;20183;-82
2021/05/26 10:25:32;;;;;;;1.92;1.08;;;13.80;80.30;;;;;;4958871;28;20204;-81
2021/05/26 10:27:58;;;;;;;2.63;0.75;;;13.90;80.50;;;;;;4958270;28;20551;-82
2021/05/26 10:30:27;;;;;;;4.47;1.00;;;13.80;79.60;;;;;;4959419;28;20584;-82
2021/05/26 10:33:00;;;;;;;1.13;1.00;;;13.80;79.50;;;;;;4959504;28;20264;-82
2021/05/26 10:35:31;;;;;;;2.92;1.15;;;13.90;82.00;;;;;;4958571;28;20187;-82
2021/05/26 10:38:07;;;;;;;1.38;1.27;;;14.00;79.50;;;;;;4956983;28;20182;-83
2021/05/26 10:40:37;;;;;;;2.70;1.10;;;14.00;78.80;;;;;;4956640;28;20207;-83
2021/05/26 10:43:19;;;;;;;2.38;1.13;;;13.90;82.80;;;;;;4956616;28;20187;-83
2021/05/26 10:45:49;;;;;;;6.15;1.05;;;14.00;81.00;;;;;;4956913;28;20186;-83
2021/05/26 10:48:43;;;;;;;6.32;1.60;;;14.10;80.50;;;;;;4955798;28;20219;-83
2021/05/26 10:51:11;;;;;;;1.17;1.02;;;14.10;78.10;;;;;;4956230;28;20274;-83
2021/05/26 10:53:45;;;;;;;4.95;1.58;;;14.10;79.60;;;;;;4955433;28;20176;-83
2021/05/26 10:56:29;;;;;;;1.50;1.00;;;14.00;78.70;;;;;;4955929;28;20164;-83
2021/05/26 10:59:12;;;;;;;3.08;1.05;;;14.00;78.10;;;;;;4955810;28;20179;-83
2021/05/26 11:02:02;;;;;;;3.20;1.25;;;14.10;80.30;;;;;;4956403;28;20200;-83
2021/05/26 11:04:28;;;;;;;2.65;1.70;;;14.20;79.50;;;;;;4956371;28;20172;-83
2021/05/26 11:07:17;;;;;;;2.25;1.20;;;14.40;77.30;;;;;;4956901;28;20204;-83
2021/05/26 11:10:07;;;;;;;11.43;1.55;;;14.40;77.70;;;;;;4956490;28;20209;-83
2021/05/26 11:12:54;;;;;;;4.63;1.05;;;14.40;78.50;;;;;;4957307;28;20220;-82
2021/05/26 11:15:39;;;;;;;1.70;1.00;;;14.40;77.80;;;;;;4957500;28;20176;-83
2021/05/26 11:20:50;;;;;;;3.55;1.05;;;14.30;78.80;;;;;;4973490;28;20188;-82
2021/05/26 11:23:16;;;;;;;2.33;0.90;;;14.20;78.10;;;;;;4956445;28;20183;-83
2021/05/26 11:25:55;;;;;;;2.10;1.03;;;14.30;79.60;;;;;;4956549;28;20493;-83
2021/05/26 11:28:32;;;;;;;2.22;1.08;;;14.30;78.70;;;;;;4956236;28;20533;-83
2021/05/26 11:31:09;;;;;;;1.10;0.90;;;14.50;79.10;;;;;;4956285;28;20226;-83
2021/05/26 11:33:39;;;;;;;2.28;1.20;;;14.50;78.40;;;;;;4956670;28;20203;-83
2021/05/26 11:36:07;;;;;;;1.60;1.08;;;14.60;80.60;;;;;;4956815;28;20710;-83
2021/05/26 11:38:34;;;;;;;3.20;1.27;;;14.70;77.00;;;;;;4956319;28;20187;-83
2021/05/26 11:41:01;;;;;;;2.70;1.45;;;14.70;77.00;;;;;;4956606;28;20203;-83
2021/05/26 11:43:31;;;;;;;1.98;0.90;;;14.70;77.30;;;;;;4956129;28;20179;-83
2021/05/26 11:46:09;;;;;;;2.22;1.13;;;14.80;77.60;;;;;;4956201;28;20166;-83
2021/05/26 11:48:36;;;;;;;2.38;1.00;;;14.80;75.80;;;;;;4956000;28;20258;-83
2021/05/26 11:51:02;;;;;;;4.97;1.60;;;14.70;77.30;;;;;;4955925;28;20196;-83
2021/05/26 11:53:28;;;;;;;5.88;1.52;;;14.80;78.70;;;;;;4955884;28;20172;-83
2021/05/26 11:56:02;;;;;;;6.10;1.30;;;14.90;78.10;;;;;;4956160;28;20174;-83
2021/05/26 11:58:30;;;;;;;3.05;1.77;;;15.00;78.00;;;;;;4956262;28;20415;-83
2021/05/26 12:01:05;;;;;;;1.55;1.15;;;15.10;77.40;;;;;;4956113;28;20214;-83
2021/05/26 12:03:31;;;;;;;3.58;1.02;;;15.10;77.00;;;;;;4956145;28;20260;-82
2021/05/26 12:05:57;;;;;;;3.70;1.25;;;15.10;76.30;;;;;;4955149;28;20188;-83
2021/05/26 12:08:25;;;;;;;2.42;0.90;;;15.10;76.70;;;;;;4955804;28;20667;-82
2021/05/26 12:10:58;;;;;;;2.67;0.98;;;15.20;76.20;;;;;;4956146;28;20245;-82
2021/05/26 12:13:35;;;;;;;3.35;1.20;;;15.20;75.10;;;;;;4955957;28;20538;-82
2021/05/26 12:16:05;;;;;;;3.75;1.10;;;15.20;75.80;;;;;;4956303;28;20651;-83
2021/05/26 12:18:31;;;;;;;2.78;1.00;;;15.20;75.60;;;;;;4956226;28;20183;-82
2021/05/26 12:20:57;;;;;;;1.92;1.27;;;15.10;73.90;;;;;;4956790;28;20265;-83
2021/05/26 12:23:33;;;;;;;1.13;0.90;;;15.20;74.50;;;;;;4956232;28;20167;-83
2021/05/26 12:26:00;;;;;;;1.40;0.88;;;15.30;73.70;;;;;;4956949;28;20257;-83
2021/05/26 12:28:29;;;;;;;1.40;0.95;;;15.30;74.50;;;;;;4956385;28;20645;-82
2021/05/26 12:30:56;;;;;;;2.55;1.30;;;15.40;75.80;;;;;;4956170;28;20199;-82
2021/05/26 12:33:26;;;;;;;1.73;0.95;;;15.70;74.50;;;;;;4956454;28;20198;-83
2021/05/26 12:36:00;;;;;;;2.03;1.25;;;15.90;73.50;;;;;;4957304;28;20176;-82
2021/05/26 12:38:26;;;;;;;3.55;1.27;;;16.10;72.00;;;;;;4956261;28;20670;-82
2021/05/26 12:40:52;;;;;;;1.87;1.20;;;16.20;72.40;;;;;;4956321;28;20278;-83
2021/05/26 12:43:30;;;;;;;1.90;1.20;;;16.40;70.10;;;;;;4955718;28;20498;-83
2021/05/26 12:45:57;;;;;;;3.80;1.30;;;16.50;70.10;;;;;;4956028;28;20419;-82
2021/05/26 12:48:28;;;;;;;2.10;1.30;;;16.60;71.40;;;;;;4954743;28;20345;-83
2021/05/26 12:50:59;;;;;;;1.52;1.35;;;16.70;69.20;;;;;;4954985;28;20192;-83
2021/05/26 12:53:33;;;;;;;1.95;1.00;;;16.80;70.90;;;;;;4954500;28;20242;-83
2021/05/26 12:56:03;;;;;;;2.28;1.17;;;17.00;69.10;;;;;;4954445;28;20195;-84